createdAt,value
2023-04-15T00:00:54.113Z,5.25
2023-04-15T00:01:54.179Z,5.27
2023-04-15T00:02:54.269Z,5.17
2023-04-15T00:03:54.118Z,5.34
2023-04-15T00:04:54.089Z,5.14
2023-04-15T00:05:54.059Z,5.20
2023-04-15T00:06:54.043Z,5.19
2023-04-15T00:07:54.051Z,5.27
2023-04-15T00:08:54.028Z,5.19
2023-04-15T00:09:55.187Z,5.23
2023-04-15T00:10:55.121Z,5.22
2023-04-15T00:11:55.105Z,5.19
2023-04-15T00:12:55.107Z,5.25
2023-04-15T00:13:55.082Z,5.07
2023-04-15T00:14:55.082Z,5.16
2023-04-15T00:15:55.070Z,5.02
2023-04-15T00:16:55.101Z,5.12
2023-04-15T00:17:55.099Z,5.04
2023-04-15T00:18:55.033Z,5.07
2023-04-15T00:19:55.021Z,5.01
2023-04-15T00:20:55.016Z,5.05
2023-04-15T00:21:55.003Z,5.16
2023-04-15T00:22:55.020Z,5.01
2023-04-15T00:23:54.990Z,5.07
2023-04-15T00:24:54.969Z,4.99
2023-04-15T00:25:54.971Z,4.88
2023-04-15T00:26:54.958Z,4.99
2023-04-15T00:27:54.957Z,4.95
2023-04-15T00:28:54.929Z,4.95
2023-04-15T00:29:54.924Z,4.92
2023-04-15T00:30:54.966Z,4.86
2023-04-15T00:31:54.903Z,4.92
2023-04-15T00:32:54.946Z,4.88
2023-04-15T00:33:54.889Z,4.72
2023-04-15T00:34:54.874Z,4.86
2023-04-15T00:35:54.856Z,4.76
2023-04-15T00:36:54.857Z,4.80
2023-04-15T00:37:54.848Z,4.79
2023-04-15T00:38:54.828Z,4.79
2023-04-15T00:39:54.827Z,4.76
2023-04-15T00:40:54.817Z,4.86
2023-04-15T00:41:54.796Z,4.89
2023-04-15T00:42:54.793Z,4.79
2023-04-15T00:43:55.770Z,4.76
2023-04-15T00:44:54.774Z,4.84
2023-04-15T00:45:54.834Z,4.77
2023-04-15T00:46:54.750Z,4.77
2023-04-15T00:47:54.780Z,4.73
2023-04-15T00:48:54.725Z,4.64
2023-04-15T00:49:54.713Z,4.58
2023-04-15T00:50:54.704Z,4.69
2023-04-15T00:51:54.691Z,4.67
2023-04-15T00:52:54.701Z,4.76
2023-04-15T00:53:54.679Z,4.75
2023-04-15T00:54:54.657Z,4.70
2023-04-15T00:55:54.667Z,4.61
2023-04-15T00:56:54.641Z,4.59
2023-04-15T00:57:54.629Z,4.67
2023-04-15T00:58:54.643Z,4.64
2023-04-15T00:59:54.609Z,4.54
2023-04-15T01:00:54.620Z,4.59
2023-04-15T01:01:54.721Z,4.52
2023-04-15T01:02:54.797Z,4.58
2023-04-15T01:03:54.684Z,4.52
2023-04-15T01:04:54.559Z,4.55
2023-04-15T01:05:54.543Z,4.52
2023-04-15T01:06:54.536Z,4.61
2023-04-15T01:07:54.524Z,4.57
2023-04-15T01:08:54.521Z,4.65
2023-04-15T01:09:54.506Z,4.72
2023-04-15T01:10:54.491Z,4.58
2023-04-15T01:11:54.491Z,4.58
2023-04-15T01:12:54.468Z,4.62
2023-04-15T01:13:54.471Z,4.57
2023-04-15T01:14:54.457Z,4.57
2023-04-15T01:15:54.494Z,4.65
2023-04-15T01:16:54.426Z,4.57
2023-04-15T01:17:54.438Z,4.54
2023-04-15T01:18:54.413Z,4.57
2023-04-15T01:19:54.398Z,4.55
2023-04-15T01:20:54.387Z,4.52
2023-04-15T01:21:54.378Z,4.57
2023-04-15T01:22:54.374Z,4.57
2023-04-15T01:23:54.380Z,4.52
2023-04-15T01:24:54.375Z,4.58
2023-04-15T01:25:54.325Z,4.58
2023-04-15T01:26:54.331Z,4.57
2023-04-15T01:27:54.325Z,4.58
2023-04-15T01:28:54.307Z,4.67
2023-04-15T01:29:54.292Z,4.47
2023-04-15T01:30:54.279Z,4.64
2023-04-15T01:31:54.325Z,4.58
2023-04-15T01:32:54.303Z,4.54
2023-04-15T01:33:54.267Z,4.46
2023-04-15T01:34:54.240Z,4.52
2023-04-15T01:35:54.230Z,4.59
2023-04-15T01:36:54.215Z,4.54
2023-04-15T01:37:54.212Z,4.64
2023-04-15T01:38:54.210Z,4.55
2023-04-15T01:39:54.188Z,4.52
2023-04-15T01:40:54.177Z,4.52
2023-04-15T01:41:54.160Z,4.44
2023-04-15T01:42:54.155Z,4.42
2023-04-15T01:43:55.159Z,4.46
2023-04-15T01:44:54.142Z,4.54
2023-04-15T01:45:54.128Z,4.59
2023-04-15T01:46:54.155Z,4.59
2023-04-15T01:47:54.144Z,4.51
2023-04-15T01:48:54.109Z,4.50
2023-04-15T01:49:54.089Z,4.43
2023-04-15T01:50:54.078Z,4.42
2023-04-15T01:51:54.073Z,4.40
2023-04-15T01:52:54.063Z,4.37
2023-04-15T01:53:54.046Z,4.34
2023-04-15T01:54:54.052Z,4.29
2023-04-15T01:55:54.029Z,4.33
2023-04-15T01:56:54.020Z,4.40
2023-04-15T01:57:54.010Z,4.50
2023-04-15T01:58:54.000Z,4.44
2023-04-15T01:59:53.998Z,4.50
2023-04-15T02:00:54.009Z,4.47
2023-04-15T02:01:54.009Z,4.51
2023-04-15T02:02:54.038Z,4.57
2023-04-15T02:03:53.986Z,4.64
2023-04-15T02:04:53.937Z,4.54
2023-04-15T02:05:53.933Z,4.57
2023-04-15T02:06:53.917Z,4.65
2023-04-15T02:07:53.903Z,4.57
2023-04-15T02:08:53.900Z,4.73
2023-04-15T02:09:53.886Z,4.65
2023-04-15T02:10:53.873Z,4.72
2023-04-15T02:11:53.872Z,4.64
2023-04-15T02:12:53.859Z,4.76
2023-04-15T02:13:53.864Z,4.72
2023-04-15T02:14:53.833Z,4.75
2023-04-15T02:15:53.824Z,4.73
2023-04-15T02:16:53.858Z,4.80
2023-04-15T02:17:53.836Z,4.73
2023-04-15T02:18:53.813Z,4.77
2023-04-15T02:19:53.789Z,4.77
2023-04-15T02:20:53.767Z,4.75
2023-04-15T02:21:53.767Z,4.80
2023-04-15T02:22:53.752Z,4.88
2023-04-15T02:23:54.168Z,4.83
2023-04-15T02:24:54.747Z,4.79
2023-04-15T02:25:54.450Z,4.70
2023-04-15T02:26:53.709Z,4.70
2023-04-15T02:27:53.699Z,4.72
2023-04-15T02:28:53.710Z,4.61
2023-04-15T02:29:53.685Z,4.65
2023-04-15T02:30:53.768Z,4.62
2023-04-15T02:31:53.681Z,4.72
2023-04-15T02:32:53.672Z,4.76
2023-04-15T02:33:53.637Z,4.79
2023-04-15T02:34:53.635Z,4.76
2023-04-15T02:35:53.623Z,4.80
2023-04-15T02:36:53.604Z,4.77
2023-04-15T02:37:53.592Z,4.83
2023-04-15T02:38:53.590Z,4.79
2023-04-15T02:39:53.572Z,4.95
2023-04-15T02:40:53.572Z,4.92
2023-04-15T02:41:53.555Z,4.89
2023-04-15T02:42:53.541Z,4.94
2023-04-15T02:43:53.538Z,4.86
2023-04-15T02:44:53.538Z,4.72
2023-04-15T02:45:53.553Z,4.67
2023-04-15T02:46:53.506Z,4.67
2023-04-15T02:47:53.523Z,4.73
2023-04-15T02:48:53.482Z,4.75
2023-04-15T02:49:53.477Z,4.80
2023-04-15T02:50:54.463Z,4.65
2023-04-15T02:51:53.453Z,4.67
2023-04-15T02:52:53.442Z,4.67
2023-04-15T02:53:53.432Z,4.62
2023-04-15T02:54:53.433Z,4.58
2023-04-15T02:55:53.410Z,4.65
2023-04-15T02:56:53.399Z,4.70
2023-04-15T02:57:53.390Z,4.72
2023-04-15T02:58:53.381Z,4.70
2023-04-15T02:59:53.388Z,4.70
2023-04-15T03:00:53.400Z,4.70
2023-04-15T03:01:53.398Z,4.69
2023-04-15T03:02:53.396Z,4.73
2023-04-15T03:03:53.420Z,4.70
2023-04-15T03:04:53.331Z,4.70
2023-04-15T03:05:53.313Z,4.76
2023-04-15T03:06:53.301Z,4.69
2023-04-15T03:07:53.291Z,4.76
2023-04-15T03:08:53.277Z,4.84
2023-04-15T03:09:53.279Z,4.76
2023-04-15T03:10:53.258Z,4.79
2023-04-15T03:11:53.245Z,4.67
2023-04-15T03:12:53.246Z,4.46
2023-04-15T03:13:53.231Z,4.57
2023-04-15T03:14:53.240Z,4.46
2023-04-15T03:15:53.240Z,4.47
2023-04-15T03:16:53.205Z,4.52
2023-04-15T03:17:53.283Z,4.54
2023-04-15T03:18:53.176Z,4.65
2023-04-15T03:19:53.181Z,4.62
2023-04-15T03:20:53.230Z,4.57
2023-04-15T03:21:53.150Z,4.58
2023-04-15T03:22:53.155Z,4.57
2023-04-15T03:23:53.218Z,4.57
2023-04-15T03:24:53.225Z,4.52
2023-04-15T03:25:53.221Z,4.54
2023-04-15T03:26:53.183Z,4.52
2023-04-15T03:27:53.085Z,4.50
2023-04-15T03:28:53.072Z,4.47
2023-04-15T03:29:53.074Z,4.43
2023-04-15T03:30:53.070Z,4.61
2023-04-15T03:31:53.045Z,4.55
2023-04-15T03:32:53.063Z,4.51
2023-04-15T03:33:53.023Z,4.55
2023-04-15T03:34:53.047Z,4.54
2023-04-15T03:35:53.007Z,4.50
2023-04-15T03:36:52.999Z,4.51
2023-04-15T03:37:52.979Z,4.51
2023-04-15T03:38:52.983Z,4.46
2023-04-15T03:39:52.973Z,4.46
2023-04-15T03:40:52.966Z,4.50
2023-04-15T03:41:52.947Z,4.47
2023-04-15T03:42:52.932Z,4.50
2023-04-15T03:43:52.922Z,4.54
2023-04-15T03:44:52.927Z,4.47
2023-04-15T03:45:52.906Z,4.40
2023-04-15T03:46:53.005Z,4.37
2023-04-15T03:47:52.901Z,4.44
2023-04-15T03:48:52.882Z,4.37
2023-04-15T03:49:52.881Z,4.37
2023-04-15T03:50:52.842Z,4.37
2023-04-15T03:51:53.846Z,4.34
2023-04-15T03:52:52.831Z,4.46
2023-04-15T03:53:52.828Z,4.36
2023-04-15T03:54:52.812Z,4.43
2023-04-15T03:55:52.815Z,4.40
2023-04-15T03:56:52.792Z,4.36
2023-04-15T03:57:52.792Z,4.24
2023-04-15T03:58:52.788Z,4.22
2023-04-15T03:59:52.781Z,4.28
2023-04-15T04:00:52.832Z,4.24
2023-04-15T04:01:52.790Z,4.24
2023-04-15T04:02:52.939Z,4.26
2023-04-15T04:03:52.887Z,4.22
2023-04-15T04:04:52.762Z,4.33
2023-04-15T04:05:52.711Z,4.37
2023-04-15T04:06:52.692Z,4.29
2023-04-15T04:07:52.683Z,4.25
2023-04-15T04:08:52.675Z,4.40
2023-04-15T04:09:52.673Z,4.37
2023-04-15T04:10:52.666Z,4.33
2023-04-15T04:11:52.645Z,4.33
2023-04-15T04:12:52.641Z,4.28
2023-04-15T04:13:52.623Z,4.34
2023-04-15T04:14:52.619Z,4.40
2023-04-15T04:15:52.648Z,4.44
2023-04-15T04:16:52.716Z,4.43
2023-04-15T04:17:52.697Z,4.43
2023-04-15T04:18:52.570Z,4.50
2023-04-15T04:19:52.566Z,4.47
2023-04-15T04:20:52.563Z,4.54
2023-04-15T04:21:52.549Z,4.51
2023-04-15T04:22:52.534Z,4.54
2023-04-15T04:23:52.524Z,4.52
2023-04-15T04:24:52.513Z,4.58
2023-04-15T04:25:52.512Z,4.61
2023-04-15T04:26:52.495Z,4.57
2023-04-15T04:27:52.487Z,4.54
2023-04-15T04:28:52.490Z,4.54
2023-04-15T04:29:52.471Z,4.54
2023-04-15T04:30:52.467Z,4.40
2023-04-15T04:31:52.471Z,4.36
2023-04-15T04:32:52.488Z,4.32
2023-04-15T04:33:52.427Z,4.43
2023-04-15T04:34:52.423Z,4.36
2023-04-15T04:35:52.410Z,4.29
2023-04-15T04:36:52.396Z,4.42
2023-04-15T04:37:52.428Z,4.40
2023-04-15T04:38:52.367Z,4.54
2023-04-15T04:39:52.363Z,4.52
2023-04-15T04:40:52.363Z,4.58
2023-04-15T04:41:52.338Z,4.55
2023-04-15T04:42:52.332Z,4.54
2023-04-15T04:43:52.325Z,4.64
2023-04-15T04:44:52.315Z,4.62
2023-04-15T04:45:52.366Z,4.57
2023-04-15T04:46:52.292Z,4.64
2023-04-15T04:47:52.362Z,4.62
2023-04-15T04:48:52.266Z,4.62
2023-04-15T04:49:52.264Z,4.51
2023-04-15T04:50:52.262Z,4.61
2023-04-15T04:51:52.242Z,4.72
2023-04-15T04:52:52.225Z,4.75
2023-04-15T04:53:52.219Z,4.58
2023-04-15T04:54:52.210Z,4.80
2023-04-15T04:55:52.217Z,4.83
2023-04-15T04:56:52.186Z,4.91
2023-04-15T04:57:52.174Z,4.80
2023-04-15T04:58:52.165Z,4.86
2023-04-15T04:59:52.160Z,4.98
2023-04-15T05:00:52.199Z,4.96
2023-04-15T05:01:52.155Z,5.02
2023-04-15T05:02:52.222Z,5.05
2023-04-15T05:03:52.151Z,5.02
2023-04-15T05:04:52.107Z,5.12
2023-04-15T05:05:52.108Z,5.07
2023-04-15T05:06:52.090Z,5.25
2023-04-15T05:07:52.077Z,5.16
2023-04-15T05:08:52.082Z,5.04
2023-04-15T05:09:52.060Z,5.09
2023-04-15T05:10:52.061Z,5.10
2023-04-15T05:11:52.059Z,5.22
2023-04-15T05:12:52.029Z,5.22
2023-04-15T05:13:52.018Z,5.22
2023-04-15T05:14:52.014Z,5.25
2023-04-15T05:15:52.029Z,5.31
2023-04-15T05:16:51.992Z,5.37
2023-04-15T05:17:51.990Z,5.43
2023-04-15T05:18:52.975Z,5.43
2023-04-15T05:19:51.964Z,5.46
2023-04-15T05:20:51.961Z,5.45
2023-04-15T05:21:51.945Z,5.49
2023-04-15T05:22:51.940Z,5.50
2023-04-15T05:23:51.929Z,5.50
2023-04-15T05:24:51.913Z,5.56
2023-04-15T05:25:51.914Z,5.59
2023-04-15T05:26:51.928Z,5.60
2023-04-15T05:27:51.884Z,5.67
2023-04-15T05:28:51.872Z,5.55
2023-04-15T05:29:51.865Z,5.66
2023-04-15T05:30:51.884Z,5.63
2023-04-15T05:31:51.843Z,5.60
2023-04-15T05:32:51.884Z,5.68
2023-04-15T05:33:51.831Z,5.70
2023-04-15T05:34:51.812Z,5.68
2023-04-15T05:35:51.817Z,5.68
2023-04-15T05:36:51.803Z,5.60
2023-04-15T05:37:51.785Z,5.71
2023-04-15T05:38:51.773Z,5.73
2023-04-15T05:39:51.775Z,5.71
2023-04-15T05:40:51.763Z,5.82
2023-04-15T05:41:51.746Z,5.74
2023-04-15T05:42:51.743Z,5.81
2023-04-15T05:43:51.725Z,5.88
2023-04-15T05:44:51.714Z,5.86
2023-04-15T05:45:51.743Z,5.86
2023-04-15T05:46:51.692Z,5.89
2023-04-15T05:47:51.706Z,6.03
2023-04-15T05:48:51.668Z,5.98
2023-04-15T05:49:51.662Z,5.91
2023-04-15T05:50:51.667Z,5.92
2023-04-15T05:51:51.653Z,5.89
2023-04-15T05:52:51.638Z,5.75
2023-04-15T05:53:51.626Z,5.85
2023-04-15T05:54:51.615Z,5.92
2023-04-15T05:55:51.610Z,5.95
2023-04-15T05:56:51.593Z,5.92
2023-04-15T05:57:51.586Z,5.88
2023-04-15T05:58:53.690Z,6.00
2023-04-15T05:59:51.573Z,6.03
2023-04-15T06:00:51.561Z,6.07
2023-04-15T06:01:51.556Z,6.06
2023-04-15T06:02:51.610Z,6.13
2023-04-15T06:03:51.671Z,6.18
2023-04-15T06:04:51.557Z,6.14
2023-04-15T06:05:51.517Z,6.19
2023-04-15T06:06:51.497Z,6.25
2023-04-15T06:07:51.483Z,6.18
2023-04-15T06:08:51.472Z,6.00
2023-04-15T06:09:51.463Z,6.19
2023-04-15T06:10:51.471Z,6.07
2023-04-15T06:11:51.444Z,6.06
2023-04-15T06:12:51.433Z,6.14
2023-04-15T06:13:51.428Z,6.11
2023-04-15T06:14:51.420Z,6.10
2023-04-15T06:15:51.438Z,6.22
2023-04-15T06:16:51.400Z,6.30
2023-04-15T06:17:51.431Z,6.36
2023-04-15T06:18:51.379Z,6.38
2023-04-15T06:19:51.360Z,6.35
2023-04-15T06:20:52.371Z,6.33
2023-04-15T06:21:51.354Z,6.40
2023-04-15T06:22:51.336Z,6.50
2023-04-15T06:23:51.324Z,6.48
2023-04-15T06:24:51.337Z,6.56
2023-04-15T06:25:51.303Z,6.51
2023-04-15T06:26:51.302Z,6.47
2023-04-15T06:27:51.290Z,6.48
2023-04-15T06:28:51.335Z,6.48
2023-04-15T06:29:51.274Z,6.48
2023-04-15T06:30:51.271Z,6.44
2023-04-15T06:31:51.265Z,6.54
2023-04-15T06:32:51.289Z,6.54
2023-04-15T06:33:51.226Z,6.61
2023-04-15T06:34:51.221Z,6.53
2023-04-15T06:35:51.217Z,6.53
2023-04-15T06:36:51.209Z,6.53
2023-04-15T06:37:51.187Z,6.51
2023-04-15T06:38:51.173Z,6.58
2023-04-15T06:39:51.169Z,6.50
2023-04-15T06:40:51.166Z,6.53
2023-04-15T06:41:51.159Z,6.66
2023-04-15T06:42:51.146Z,6.79
2023-04-15T06:43:51.126Z,6.87
2023-04-15T06:44:51.135Z,7.01
2023-04-15T06:45:51.147Z,7.02
2023-04-15T06:46:51.102Z,7.13
2023-04-15T06:47:51.124Z,7.13
2023-04-15T06:48:51.076Z,7.15
2023-04-15T06:49:51.065Z,7.27
2023-04-15T06:50:51.074Z,7.34
2023-04-15T06:51:51.047Z,7.35
2023-04-15T06:52:51.039Z,7.41
2023-04-15T06:53:51.020Z,7.35
2023-04-15T06:54:51.026Z,7.35
2023-04-15T06:55:51.024Z,7.45
2023-04-15T06:56:51.000Z,7.53
2023-04-15T06:57:50.992Z,7.45
2023-04-15T06:58:50.976Z,7.50
2023-04-15T06:59:50.969Z,7.66
2023-04-15T07:00:50.992Z,7.74
2023-04-15T07:01:51.002Z,7.78
2023-04-15T07:02:50.943Z,7.85
2023-04-15T07:03:50.954Z,7.93
2023-04-15T07:04:50.921Z,7.93
2023-04-15T07:05:50.926Z,8.07
2023-04-15T07:06:50.901Z,8.10
2023-04-15T07:07:50.894Z,8.04
2023-04-15T07:08:50.884Z,8.12
2023-04-15T07:09:50.864Z,8.14
2023-04-15T07:10:51.870Z,8.08
2023-04-15T07:11:50.852Z,8.20
2023-04-15T07:12:50.924Z,8.21
2023-04-15T07:13:50.831Z,8.18
2023-04-15T07:14:50.822Z,8.26
2023-04-15T07:15:50.828Z,8.40
2023-04-15T07:16:50.837Z,8.45
2023-04-15T07:17:50.808Z,8.40
2023-04-15T07:18:50.785Z,8.39
2023-04-15T07:19:50.777Z,8.48
2023-04-15T07:20:50.775Z,8.44
2023-04-15T07:21:50.762Z,8.58
2023-04-15T07:22:50.752Z,8.48
2023-04-15T07:23:50.735Z,8.55
2023-04-15T07:24:50.723Z,8.57
2023-04-15T07:25:50.738Z,8.60
2023-04-15T07:26:50.702Z,8.51
2023-04-15T07:27:50.692Z,8.39
2023-04-15T07:28:50.682Z,8.29
2023-04-15T07:29:50.672Z,8.35
2023-04-15T07:30:50.760Z,8.44
2023-04-15T07:31:50.658Z,8.47
2023-04-15T07:32:50.653Z,8.47
2023-04-15T07:33:50.630Z,8.53
2023-04-15T07:34:50.620Z,8.54
2023-04-15T07:35:50.607Z,8.58
2023-04-15T07:36:50.677Z,8.62
2023-04-15T07:37:50.585Z,8.54
2023-04-15T07:38:50.579Z,8.58
2023-04-15T07:39:50.568Z,8.63
2023-04-15T07:40:50.574Z,8.72
2023-04-15T07:41:50.564Z,8.79
2023-04-15T07:42:50.544Z,8.75
2023-04-15T07:43:50.541Z,8.72
2023-04-15T07:44:50.530Z,8.75
2023-04-15T07:45:50.525Z,8.68
2023-04-15T07:46:50.501Z,8.68
2023-04-15T07:47:50.530Z,8.75
2023-04-15T07:48:50.480Z,8.75
2023-04-15T07:49:50.470Z,8.73
2023-04-15T07:50:50.470Z,8.79
2023-04-15T07:51:50.445Z,8.76
2023-04-15T07:52:50.433Z,8.72
2023-04-15T07:53:50.941Z,8.73
2023-04-15T07:54:50.417Z,8.84
2023-04-15T07:55:50.420Z,8.83
2023-04-15T07:56:50.400Z,8.76
2023-04-15T07:57:50.388Z,8.72
2023-04-15T07:58:50.377Z,8.81
2023-04-15T07:59:50.372Z,8.84
2023-04-15T08:00:50.371Z,8.78
2023-04-15T08:01:50.438Z,8.84
2023-04-15T08:02:50.511Z,8.84
2023-04-15T08:03:50.529Z,9.02
2023-04-15T08:04:50.409Z,8.84
2023-04-15T08:05:50.316Z,8.87
2023-04-15T08:06:50.317Z,8.81
2023-04-15T08:07:50.285Z,8.86
2023-04-15T08:08:50.273Z,8.78
2023-04-15T08:09:50.272Z,8.91
2023-04-15T08:10:52.514Z,8.83
2023-04-15T08:11:51.254Z,8.88
2023-04-15T08:12:50.230Z,8.87
2023-04-15T08:13:50.222Z,8.91
2023-04-15T08:14:50.209Z,8.79
2023-04-15T08:15:50.239Z,8.86
2023-04-15T08:16:50.191Z,8.88
2023-04-15T08:17:50.192Z,8.86
2023-04-15T08:18:50.166Z,8.78
2023-04-15T08:19:50.154Z,8.75
2023-04-15T08:20:50.144Z,8.78
2023-04-15T08:21:50.152Z,8.72
2023-04-15T08:22:50.121Z,8.83
2023-04-15T08:23:50.140Z,8.79
2023-04-15T08:24:50.102Z,8.88
2023-04-15T08:25:50.096Z,8.81
2023-04-15T08:26:50.103Z,8.75
2023-04-15T08:27:50.075Z,8.90
2023-04-15T08:28:50.066Z,8.72
2023-04-15T08:29:50.065Z,8.72
2023-04-15T08:30:50.041Z,8.75
2023-04-15T08:31:50.094Z,8.75
2023-04-15T08:32:50.074Z,8.81
2023-04-15T08:33:50.010Z,8.76
2023-04-15T08:34:50.006Z,8.87
2023-04-15T08:35:49.987Z,8.84
2023-04-15T08:36:49.991Z,8.87
2023-04-15T08:37:49.968Z,8.79
2023-04-15T08:38:49.959Z,8.79
2023-04-15T08:39:49.947Z,8.76
2023-04-15T08:40:49.937Z,8.68
2023-04-15T08:41:49.934Z,8.71
2023-04-15T08:42:49.916Z,8.62
2023-04-15T08:43:49.907Z,8.73
2023-04-15T08:44:49.892Z,8.55
2023-04-15T08:45:50.526Z,8.57
2023-04-15T08:46:49.922Z,8.63
2023-04-15T08:47:49.909Z,8.63
2023-04-15T08:48:49.851Z,8.69
2023-04-15T08:49:49.845Z,8.78
2023-04-15T08:50:49.836Z,8.83
2023-04-15T08:51:49.836Z,8.75
2023-04-15T08:52:50.554Z,8.81
2023-04-15T08:53:49.800Z,8.68
2023-04-15T08:54:49.786Z,8.71
2023-04-15T08:55:49.781Z,8.69
2023-04-15T08:56:49.830Z,8.65
2023-04-15T08:57:49.759Z,8.71
2023-04-15T08:58:49.743Z,8.71
2023-04-15T08:59:49.745Z,8.72
2023-04-15T09:00:49.734Z,8.54
2023-04-15T09:01:49.772Z,8.57
2023-04-15T09:02:49.788Z,8.65
2023-04-15T09:03:49.800Z,8.71
2023-04-15T09:04:49.704Z,8.71
2023-04-15T09:05:52.718Z,8.72
2023-04-15T09:06:49.672Z,8.72
2023-04-15T09:07:49.665Z,8.75
2023-04-15T09:08:49.645Z,8.81
2023-04-15T09:09:49.632Z,8.73
2023-04-15T09:10:49.625Z,8.76
2023-04-15T09:11:49.622Z,8.75
2023-04-15T09:12:49.598Z,8.75
2023-04-15T09:13:49.601Z,8.75
2023-04-15T09:14:49.577Z,8.76
2023-04-15T09:15:49.586Z,8.90
2023-04-15T09:16:50.529Z,8.88
2023-04-15T09:17:50.594Z,8.88
2023-04-15T09:18:49.542Z,8.86
2023-04-15T09:19:49.533Z,8.84
2023-04-15T09:20:49.519Z,8.93
2023-04-15T09:21:49.511Z,8.94
2023-04-15T09:22:49.563Z,8.97
2023-04-15T09:23:49.480Z,8.97
2023-04-15T09:24:49.471Z,8.96
2023-04-15T09:25:49.483Z,8.88
2023-04-15T09:26:49.459Z,8.90
2023-04-15T09:27:49.440Z,8.88
2023-04-15T09:28:49.445Z,8.86
2023-04-15T09:29:49.418Z,8.93
2023-04-15T09:30:50.947Z,8.97
2023-04-15T09:31:50.408Z,8.84
2023-04-15T09:32:49.452Z,8.83
2023-04-15T09:33:49.375Z,8.73
2023-04-15T09:34:49.368Z,8.78
2023-04-15T09:35:49.358Z,8.78
2023-04-15T09:36:51.076Z,8.65
2023-04-15T09:37:50.337Z,8.78
2023-04-15T09:38:49.319Z,8.75
2023-04-15T09:39:49.307Z,8.76
2023-04-15T09:40:49.297Z,8.71
2023-04-15T09:41:49.298Z,8.58
2023-04-15T09:42:50.372Z,8.57
2023-04-15T09:43:50.272Z,8.55
2023-04-15T09:44:49.258Z,8.75
2023-04-15T09:45:49.281Z,8.69
2023-04-15T09:46:49.245Z,8.75
2023-04-15T09:47:49.263Z,8.78
2023-04-15T09:48:49.212Z,8.87
2023-04-15T09:49:49.230Z,8.76
2023-04-15T09:50:49.195Z,8.79
2023-04-15T09:52:03.970Z,8.72
2023-04-15T09:52:51.169Z,8.81
2023-04-15T09:53:49.157Z,8.76
2023-04-15T09:54:49.150Z,8.86
2023-04-15T09:55:49.141Z,8.86
2023-04-15T09:56:49.134Z,8.93
2023-04-15T09:57:49.113Z,9.01
2023-04-15T09:58:49.106Z,8.99
2023-04-15T09:59:49.090Z,9.05
2023-04-15T10:00:49.087Z,8.91
2023-04-15T10:01:49.193Z,8.96
2023-04-15T10:02:49.220Z,8.91
2023-04-15T10:03:49.117Z,8.86
2023-04-15T10:04:49.038Z,8.78
2023-04-15T10:05:49.025Z,8.81
2023-04-15T10:06:49.034Z,8.87
2023-04-15T10:07:49.009Z,8.78
2023-04-15T10:08:49.003Z,8.81
2023-04-15T10:09:48.994Z,8.83
2023-04-15T10:10:48.974Z,9.02
2023-04-15T10:11:48.974Z,8.90
2023-04-15T10:12:48.958Z,8.88
2023-04-15T10:13:48.941Z,8.93
2023-04-15T10:14:48.925Z,8.90
2023-04-15T10:15:48.987Z,8.94
2023-04-15T10:16:48.940Z,9.04
2023-04-15T10:17:48.947Z,8.97
2023-04-15T10:18:48.890Z,9.05
2023-04-15T10:19:48.875Z,9.12
2023-04-15T10:20:48.871Z,9.05
2023-04-15T10:21:48.861Z,8.91
2023-04-15T10:22:48.861Z,8.96
2023-04-15T10:23:48.834Z,9.13
2023-04-15T10:24:48.820Z,9.13
2023-04-15T10:25:48.807Z,9.16
2023-04-15T10:26:48.801Z,9.31
2023-04-15T10:27:48.805Z,9.25
2023-04-15T10:28:48.782Z,9.49
2023-04-15T10:29:48.778Z,9.49
2023-04-15T10:30:48.772Z,9.43
2023-04-15T10:31:48.799Z,9.46
2023-04-15T10:32:48.766Z,9.39
2023-04-15T10:33:48.719Z,9.46
2023-04-15T10:34:48.716Z,9.42
2023-04-15T10:35:48.700Z,9.42
2023-04-15T10:36:48.690Z,9.39
2023-04-15T10:37:48.697Z,9.42
2023-04-15T10:38:48.676Z,9.40
2023-04-15T10:39:48.660Z,9.48
2023-04-15T10:40:48.652Z,9.48
2023-04-15T10:41:48.636Z,9.32
2023-04-15T10:42:48.635Z,9.28
2023-04-15T10:43:48.617Z,9.23
2023-04-15T10:44:48.610Z,9.30
2023-04-15T10:45:48.596Z,9.13
2023-04-15T10:46:48.609Z,9.18
2023-04-15T10:47:48.626Z,9.23
2023-04-15T10:48:48.565Z,9.27
2023-04-15T10:49:49.559Z,9.13
2023-04-15T10:50:48.547Z,9.15
2023-04-15T10:51:48.541Z,9.01
2023-04-15T10:52:48.534Z,9.05
2023-04-15T10:53:48.521Z,9.02
2023-04-15T10:54:49.058Z,9.06
2023-04-15T10:55:48.496Z,8.97
2023-04-15T10:56:48.545Z,9.13
2023-04-15T10:57:48.487Z,9.20
2023-04-15T10:58:48.489Z,9.27
2023-04-15T10:59:48.456Z,9.15
2023-04-15T11:00:48.451Z,9.21
2023-04-15T11:01:48.590Z,9.21
2023-04-15T11:02:48.550Z,9.18
2023-04-15T11:03:48.733Z,9.13
2023-04-15T11:04:48.457Z,9.16
2023-04-15T11:05:48.391Z,9.20
2023-04-15T11:06:48.416Z,9.21
2023-04-15T11:07:48.398Z,9.04
2023-04-15T11:08:48.430Z,8.86
2023-04-15T11:09:48.371Z,8.97
2023-04-15T11:10:48.346Z,9.02
2023-04-15T11:11:48.353Z,9.02
2023-04-15T11:12:48.349Z,9.05
2023-04-15T11:13:48.336Z,8.97
2023-04-15T11:14:48.315Z,9.15
2023-04-15T11:15:48.293Z,9.16
2023-04-15T11:16:48.357Z,9.24
2023-04-15T11:17:48.330Z,9.28
2023-04-15T11:18:48.276Z,9.31
2023-04-15T11:19:48.256Z,9.18
2023-04-15T11:20:48.297Z,9.15
2023-04-15T11:21:48.242Z,9.24
2023-04-15T11:22:48.365Z,9.23
2023-04-15T11:23:48.320Z,9.30
2023-04-15T11:24:48.229Z,9.32
2023-04-15T11:25:48.201Z,9.21
2023-04-15T11:26:48.202Z,9.30
2023-04-15T11:27:48.205Z,9.27
2023-04-15T11:28:48.233Z,9.24
2023-04-15T11:29:48.191Z,9.24
2023-04-15T11:30:48.144Z,9.32
2023-04-15T11:31:48.158Z,9.21
2023-04-15T11:32:48.188Z,9.32
2023-04-15T11:33:48.142Z,9.20
2023-04-15T11:34:48.114Z,9.23
2023-04-15T11:35:48.131Z,9.28
2023-04-15T11:36:48.114Z,9.32
2023-04-15T11:37:48.073Z,9.30
2023-04-15T11:38:48.112Z,9.21
2023-04-15T11:39:48.061Z,9.16
2023-04-15T11:40:48.047Z,9.16
2023-04-15T11:41:48.030Z,9.35
2023-04-15T11:42:50.141Z,9.24
2023-04-15T11:43:49.029Z,9.31
2023-04-15T11:44:48.006Z,9.27
2023-04-15T11:45:48.016Z,9.25
2023-04-15T11:46:47.988Z,9.23
2023-04-15T11:47:48.006Z,9.43
2023-04-15T11:48:47.972Z,9.38
2023-04-15T11:49:47.953Z,9.28
2023-04-15T11:50:47.960Z,9.28
2023-04-15T11:51:47.931Z,9.16
2023-04-15T11:52:47.924Z,9.20
2023-04-15T11:53:47.930Z,9.30
2023-04-15T11:54:47.908Z,9.40
2023-04-15T11:55:47.894Z,9.43
2023-04-15T11:56:47.881Z,9.43
2023-04-15T11:57:47.882Z,9.43
2023-04-15T11:58:47.873Z,9.60
2023-04-15T11:59:47.855Z,9.60
2023-04-15T12:00:47.840Z,9.63
2023-04-15T12:01:47.898Z,9.63
2023-04-15T12:02:47.921Z,9.75
2023-04-15T12:03:47.931Z,9.70
2023-04-15T12:04:47.920Z,9.60
2023-04-15T12:05:47.786Z,9.57
2023-04-15T12:06:47.781Z,9.60
2023-04-15T12:07:47.764Z,9.64
2023-04-15T12:08:47.775Z,9.48
2023-04-15T12:09:47.748Z,9.40
2023-04-15T12:10:47.736Z,9.53
2023-04-15T12:11:47.720Z,9.39
2023-04-15T12:12:48.714Z,9.45
2023-04-15T12:13:47.718Z,9.52
2023-04-15T12:14:47.700Z,9.52
2023-04-15T12:15:47.730Z,9.58
2023-04-15T12:16:48.646Z,9.79
2023-04-15T12:17:51.659Z,9.86
2023-04-15T12:18:47.676Z,9.81
2023-04-15T12:19:47.648Z,9.91
2023-04-15T12:20:47.636Z,9.83
2023-04-15T12:21:47.631Z,9.85
2023-04-15T12:22:47.616Z,9.75
2023-04-15T12:23:47.620Z,9.78
2023-04-15T12:24:47.595Z,9.85
2023-04-15T12:25:47.592Z,9.78
2023-04-15T12:26:47.580Z,9.83
2023-04-15T12:27:47.568Z,9.88
2023-04-15T12:28:47.580Z,9.81
2023-04-15T12:29:47.549Z,9.78
2023-04-15T12:30:47.542Z,9.81
2023-04-15T12:31:47.549Z,9.67
2023-04-15T12:32:47.586Z,9.75
2023-04-15T12:33:47.541Z,9.79
2023-04-15T12:34:47.498Z,9.83
2023-04-15T12:35:47.502Z,9.85
2023-04-15T12:36:47.479Z,9.93
2023-04-15T12:37:47.473Z,9.81
2023-04-15T12:38:47.483Z,9.76
2023-04-15T12:39:47.448Z,9.70
2023-04-15T12:40:47.453Z,9.60
2023-04-15T12:41:47.430Z,9.61
2023-04-15T12:42:47.419Z,9.57
2023-04-15T12:43:47.406Z,9.58
2023-04-15T12:44:47.412Z,9.61
2023-04-15T12:45:47.385Z,9.63
2023-04-15T12:46:48.097Z,9.58
2023-04-15T12:47:47.406Z,9.46
2023-04-15T12:48:48.105Z,9.53
2023-04-15T12:49:47.369Z,9.53
2023-04-15T12:50:47.340Z,9.48
2023-04-15T12:51:47.334Z,9.49
2023-04-15T12:52:47.326Z,9.38
2023-04-15T12:53:47.313Z,9.40
2023-04-15T12:54:47.308Z,9.48
2023-04-15T12:55:47.293Z,9.49
2023-04-15T12:56:47.278Z,9.38
2023-04-15T12:57:47.276Z,9.40
2023-04-15T12:58:47.260Z,9.23
2023-04-15T12:59:47.266Z,9.27
2023-04-15T13:00:47.242Z,9.12
2023-04-15T13:01:47.364Z,9.09
2023-04-15T13:02:47.326Z,9.09
2023-04-15T13:03:47.398Z,9.23
2023-04-15T13:04:47.232Z,9.18
2023-04-15T13:05:47.194Z,9.27
2023-04-15T13:06:47.177Z,9.21
2023-04-15T13:07:47.172Z,9.40
2023-04-15T13:08:57.486Z,9.45
2023-04-15T13:09:49.144Z,9.35
2023-04-15T13:10:47.136Z,9.50
2023-04-15T13:11:47.136Z,9.52
2023-04-15T13:12:47.116Z,9.46
2023-04-15T13:13:47.122Z,9.45
2023-04-15T13:14:47.100Z,9.50
2023-04-15T13:15:47.118Z,9.48
2023-04-15T13:16:47.087Z,9.39
2023-04-15T13:17:47.098Z,9.48
2023-04-15T13:18:47.067Z,9.40